Time;durP1;ratioP1;P1;durP2;ratioP2;P2;SDS_P1;SDS_P2;PMS_P1;PMS_P2;Temp;Humidity;BMP_temperature;BMP_pressure;BME280_temperature;BME280_humidity;BME280_pressure;Samples;Min_cycle;Max_cycle;Signal;HPM_P1;HPM_P2
2022/07/13 00:00:01;;;;;;;15.52;10.80;;;;;;;22.40;64.51;102077.31;5078575;28;20032;-61
2022/07/13 00:02:26;;;;;;;16.00;10.18;;;;;;;22.35;64.27;102074.44;5081105;28;20020;-61
2022/07/13 00:04:52;;;;;;;13.35;10.27;;;;;;;22.33;64.12;102075.72;5084028;28;20039;-61
2022/07/13 00:07:17;;;;;;;11.52;10.00;;;;;;;22.29;64.01;102050.16;5084120;28;20032;-61
2022/07/13 00:09:42;;;;;;;13.57;10.90;;;;;;;22.25;64.09;102058.69;5085172;28;20024;-61
2022/07/13 00:12:08;;;;;;;14.80;10.75;;;;;;;22.23;63.98;102049.13;5084458;28;20031;-62
2022/07/13 00:14:33;;;;;;;14.13;10.90;;;;;;;22.21;64.37;102046.63;5081992;28;20133;-61
2022/07/13 00:16:58;;;;;;;13.90;10.18;;;;;;;22.23;64.10;102047.25;5081782;28;20034;-61
2022/07/13 00:19:24;;;;;;;16.98;11.27;;;;;;;22.21;64.05;102040.38;5082649;28;20040;-61
2022/07/13 00:21:49;;;;;;;15.80;10.25;;;;;;;22.19;64.13;102031.66;5084482;28;20028;-61
2022/07/13 00:24:15;;;;;;;13.18;10.77;;;;;;;22.18;63.92;102038.94;5083125;28;20537;-61
2022/07/13 00:26:40;;;;;;;14.07;11.27;;;;;;;22.17;63.93;102034.59;5080272;28;20024;-61
2022/07/13 00:29:06;;;;;;;15.45;10.73;;;;;;;22.16;63.96;102024.81;5084101;28;20508;-61
2022/07/13 00:31:31;;;;;;;13.30;10.98;;;;;;;22.11;63.85;102021.09;5082873;28;20081;-61
2022/07/13 00:33:57;;;;;;;11.88;10.45;;;;;;;22.08;63.81;102016.97;5081309;28;20417;-61
2022/07/13 00:36:22;;;;;;;12.13;10.82;;;;;;;22.04;64.16;102015.75;5084971;28;20028;-62
2022/07/13 00:38:48;;;;;;;15.30;10.90;;;;;;;22.06;64.04;102019.06;5084542;28;20106;-61
2022/07/13 00:41:13;;;;;;;16.88;10.98;;;;;;;22.06;63.97;102010.13;5093495;28;20061;-62
2022/07/13 00:43:38;;;;;;;14.93;10.15;;;;;;;22.06;64.20;102010.94;5075344;28;20044;-65
2022/07/13 00:46:04;;;;;;;17.23;11.27;;;;;;;22.03;64.21;102013.22;5085181;28;20051;-62
2022/07/13 00:48:30;;;;;;;14.23;11.32;;;;;;;21.99;64.56;102012.00;5080263;28;20027;-61
2022/07/13 00:50:55;;;;;;;16.90;10.63;;;;;;;22.01;64.47;102008.03;5085046;28;20028;-61
2022/07/13 00:53:22;;;;;;;14.45;11.20;;;;;;;21.97;64.31;101990.56;5083576;28;20031;-61
2022/07/13 00:55:48;;;;;;;14.50;11.30;;;;;;;21.98;64.25;101980.59;5084108;28;20035;-61
2022/07/13 00:58:13;;;;;;;17.80;11.63;;;;;;;21.91;64.36;101986.84;5085909;28;20028;-61
2022/07/13 01:00:39;;;;;;;15.07;11.45;;;;;;;21.78;64.87;101983.41;5084972;28;20108;-61
2022/07/13 01:03:04;;;;;;;15.95;11.73;;;;;;;21.80;65.13;101986.72;5087385;28;20016;-61
2022/07/13 01:05:30;;;;;;;14.48;12.07;;;;;;;21.77;65.08;101971.78;5087431;28;20111;-61
2022/07/13 01:07:55;;;;;;;15.10;11.50;;;;;;;21.79;65.00;101977.78;5079765;28;20028;-61
2022/07/13 01:10:21;;;;;;;16.73;11.82;;;;;;;21.75;65.07;101978.44;5085173;28;20032;-61
2022/07/13 01:12:47;;;;;;;16.38;11.70;;;;;;;21.76;65.17;101978.22;5085646;28;20469;-61
2022/07/13 01:15:12;;;;;;;15.13;10.70;;;;;;;21.80;65.05;101973.22;5086551;28;20047;-61
2022/07/13 01:17:38;;;;;;;12.52;11.00;;;;;;;21.79;65.19;101976.97;5087859;28;20031;-61
2022/07/13 01:20:05;;;;;;;16.38;11.43;;;;;;;21.79;65.39;101985.91;5086244;28;20036;-61
2022/07/13 01:22:41;;;;;;;17.10;11.00;;;;;;;21.81;65.21;101986.50;5077764;28;20016;-62
2022/07/13 01:25:07;;;;;;;16.90;11.20;;;;;;;21.82;65.15;101981.94;5085607;28;20051;-61
2022/07/13 01:27:34;;;;;;;18.52;11.23;;;;;;;21.83;64.97;101975.47;5084317;28;20504;-62
2022/07/13 01:30:00;;;;;;;15.65;10.82;;;;;;;21.82;64.71;101977.34;5083503;28;20027;-61
2022/07/13 01:32:25;;;;;;;13.73;11.00;;;;;;;21.83;65.01;101983.59;5085359;28;20024;-61
2022/07/13 01:34:50;;;;;;;15.55;10.82;;;;;;;21.87;64.98;101979.41;5087186;28;20120;-61
2022/07/13 01:37:15;;;;;;;14.23;10.98;;;;;;;21.87;64.81;101972.13;5087081;28;20024;-61
2022/07/13 01:39:41;;;;;;;13.32;11.27;;;;;;;21.88;64.68;101967.53;5086393;28;20016;-61
2022/07/13 01:42:06;;;;;;;17.30;11.30;;;;;;;21.86;64.78;101959.63;5083010;28;20016;-62
2022/07/13 01:44:31;;;;;;;14.63;11.05;;;;;;;21.84;64.58;101958.19;5085885;28;20431;-61
2022/07/13 01:46:57;;;;;;;13.35;10.55;;;;;;;21.80;64.60;101962.41;5085013;28;20023;-61
2022/07/13 01:49:22;;;;;;;13.55;10.25;;;;;;;21.81;64.80;101959.47;5089195;28;20035;-61
2022/07/13 01:51:48;;;;;;;16.52;10.75;;;;;;;21.80;64.92;101962.41;5084308;28;20099;-61
2022/07/13 01:54:13;;;;;;;16.38;10.82;;;;;;;21.81;64.88;101962.16;5082574;28;20047;-62
2022/07/13 01:56:39;;;;;;;15.57;11.13;;;;;;;21.81;64.77;101966.75;5081394;28;20066;-61
2022/07/13 01:59:04;;;;;;;12.07;10.20;;;;;;;21.80;64.96;101965.09;5080629;28;20036;-61
2022/07/13 02:01:29;;;;;;;15.50;10.88;;;;;;;21.82;64.56;101966.53;5085638;28;20038;-62
2022/07/13 02:03:55;;;;;;;14.43;10.50;;;;;;;21.80;64.67;101965.09;5084618;28;20031;-61
2022/07/13 02:06:20;;;;;;;13.65;10.82;;;;;;;21.81;64.98;101964.88;5078112;28;20036;-60
2022/07/13 02:08:46;;;;;;;12.90;10.00;;;;;;;21.81;64.78;101954.06;5092503;28;20024;-61
2022/07/13 02:11:18;;;;;;;14.02;10.63;;;;;;;21.81;64.76;101956.75;5086700;28;20107;-61
2022/07/13 02:13:45;;;;;;;14.50;10.85;;;;;;;21.76;65.19;101945.78;5078972;28;20102;-61
2022/07/13 02:16:11;;;;;;;16.05;11.35;;;;;;;21.74;65.16;101945.16;5085294;28;20488;-62
2022/07/13 02:18:36;;;;;;;18.25;11.63;;;;;;;21.75;65.35;101948.69;5086415;28;20027;-62
2022/07/13 02:21:02;;;;;;;13.10;10.75;;;;;;;21.72;65.36;101944.56;5087045;28;20036;-62
2022/07/13 02:23:27;;;;;;;13.43;11.00;;;;;;;21.66;65.90;101945.41;5080286;28;20023;-62
2022/07/13 02:25:52;;;;;;;14.10;11.52;;;;;;;21.66;66.03;101931.88;5083767;28;20115;-61
2022/07/13 02:28:17;;;;;;;14.40;11.65;;;;;;;21.58;66.52;101930.28;5077428;28;20035;-61
2022/07/13 02:30:43;;;;;;;14.43;11.35;;;;;;;21.56;66.77;101929.66;5082378;28;20031;-61
2022/07/13 02:33:08;;;;;;;15.68;11.55;;;;;;;21.53;67.07;101910.34;5081115;28;20524;-61
2022/07/13 02:35:33;;;;;;;14.60;11.77;;;;;;;21.49;67.11;101909.13;5082677;28;20032;-62
2022/07/13 02:37:59;;;;;;;13.02;10.73;;;;;;;21.48;67.13;101912.88;5081607;28;20529;-61
2022/07/13 02:40:24;;;;;;;14.38;10.75;;;;;;;21.50;66.95;101910.78;5085609;28;20027;-61
2022/07/13 02:42:49;;;;;;;10.32;8.93;;;;;;;21.53;65.94;101907.66;5089312;28;20023;-62
2022/07/13 02:45:15;;;;;;;11.13;8.65;;;;;;;21.52;65.13;101896.00;5082954;28;20055;-61
2022/07/13 02:47:40;;;;;;;13.25;9.13;;;;;;;21.52;64.87;101903.28;5082541;28;20020;-61
2022/07/13 02:50:06;;;;;;;13.68;9.35;;;;;;;21.52;64.93;101916.81;5083506;28;20107;-61
2022/07/13 02:52:31;;;;;;;12.63;8.32;;;;;;;21.54;64.73;101917.41;5078311;28;20028;-62
2022/07/13 02:54:58;;;;;;;9.63;7.38;;;;;;;21.56;63.94;101915.31;5085186;28;20400;-61
2022/07/13 02:57:24;;;;;;;11.75;8.25;;;;;;;21.53;64.35;101910.34;5088771;28;20148;-61
2022/07/13 02:59:49;;;;;;;9.73;6.95;;;;;;;21.60;64.28;101905.72;5076914;28;20543;-61
2022/07/13 03:02:15;;;;;;;12.52;7.38;;;;;;;21.55;64.08;101909.09;5082847;28;20027;-61
2022/07/13 03:04:41;;;;;;;8.20;7.25;;;;;;;21.56;64.19;101912.63;5084258;28;20028;-61
2022/07/13 03:07:06;;;;;;;10.85;7.50;;;;;;;21.55;64.23;101911.78;5086955;28;20097;-61
2022/07/13 03:09:31;;;;;;;10.98;7.60;;;;;;;21.54;63.88;101904.72;5093172;28;20106;-61
2022/07/13 03:11:56;;;;;;;10.98;7.40;;;;;;;21.53;63.18;101904.94;5087292;28;20046;-61
2022/07/13 03:14:22;;;;;;;8.20;6.53;;;;;;;21.55;63.86;101908.25;5092389;28;20099;-62
2022/07/13 03:16:47;;;;;;;7.78;5.70;;;;;;;21.57;63.08;101914.28;5089381;28;20096;-61
2022/07/13 03:19:13;;;;;;;7.38;6.07;;;;;;;21.57;62.71;101908.88;5082861;28;20092;-62
2022/07/13 03:21:39;;;;;;;9.48;5.07;;;;;;;21.57;62.22;101903.47;5087136;28;20028;-61
2022/07/13 03:24:04;;;;;;;6.85;5.28;;;;;;;21.58;61.38;101905.94;5087343;28;20411;-62
2022/07/13 03:26:29;;;;;;;6.38;5.50;;;;;;;21.54;61.14;101893.09;5088438;28;20024;-60
2022/07/13 03:28:55;;;;;;;6.68;5.15;;;;;;;21.57;60.98;101887.25;5088553;28;20031;-61
2022/07/13 03:31:20;;;;;;;9.85;4.82;;;;;;;21.55;60.03;101886.63;5085971;28;20027;-62
2022/07/13 03:33:46;;;;;;;10.77;4.68;;;;;;;21.55;59.76;101892.88;5092013;28;20020;-61
2022/07/13 03:36:12;;;;;;;8.57;4.63;;;;;;;21.52;59.26;101887.91;5093477;28;20108;-61
2022/07/13 03:38:37;;;;;;;5.45;4.28;;;;;;;21.51;59.15;101890.81;5091624;28;20111;-61
2022/07/13 03:41:03;;;;;;;6.95;4.07;;;;;;;21.48;59.06;101886.69;5088709;28;20123;-61
2022/07/13 03:43:28;;;;;;;5.30;4.10;;;;;;;21.47;58.90;101887.72;5082838;28;20558;-61
2022/07/13 03:45:54;;;;;;;7.95;4.40;;;;;;;21.42;58.92;101890.25;5086847;28;20062;-61
2022/07/13 03:48:20;;;;;;;6.50;4.18;;;;;;;21.44;58.83;101890.03;5086124;28;20028;-61
2022/07/13 03:50:46;;;;;;;5.95;4.03;;;;;;;21.44;58.77;101892.75;5083487;28;20559;-61
2022/07/13 03:53:12;;;;;;;6.60;4.32;;;;;;;21.44;58.50;101887.34;5080748;28;20036;-61
2022/07/13 03:55:38;;;;;;;6.32;4.20;;;;;;;21.42;58.56;101884.03;5088252;28;20135;-61
2022/07/13 03:58:04;;;;;;;7.03;4.60;;;;;;;21.40;58.42;101889.66;5085348;28;20117;-61
2022/07/13 04:00:30;;;;;;;8.63;4.15;;;;;;;21.38;58.45;101889.00;5080718;28;20058;-62
2022/07/13 04:02:56;;;;;;;8.77;4.20;;;;;;;21.37;58.64;101900.03;5086264;28;20020;-61
2022/07/13 04:05:21;;;;;;;7.18;4.00;;;;;;;21.36;58.28;101896.50;5084629;28;20024;-61
2022/07/13 04:07:46;;;;;;;9.55;4.30;;;;;;;21.35;58.48;101892.16;5085724;28;20024;-61
2022/07/13 04:10:12;;;;;;;9.07;4.40;;;;;;;21.31;58.54;101891.75;5086388;28;20619;-61
2022/07/13 04:12:37;;;;;;;5.22;4.05;;;;;;;21.29;58.71;101885.72;5088724;28;20031;-61
2022/07/13 04:15:03;;;;;;;8.50;4.40;;;;;;;21.29;58.59;101874.09;5094650;28;20071;-61
2022/07/13 04:17:28;;;;;;;7.32;3.95;;;;;;;21.29;58.54;101876.81;5085885;28;20028;-61
2022/07/13 04:19:53;;;;;;;5.78;4.47;;;;;;;21.26;58.92;101869.97;5091774;28;20100;-61
2022/07/13 04:22:19;;;;;;;5.68;3.90;;;;;;;21.24;59.07;101872.06;5085118;28;20028;-61
2022/07/13 04:24:45;;;;;;;5.85;4.22;;;;;;;21.23;58.81;101866.84;5090200;28;20015;-60
2022/07/13 04:27:10;;;;;;;9.90;3.97;;;;;;;21.21;58.76;101872.47;5084114;28;20043;-61
2022/07/13 04:29:35;;;;;;;6.78;4.25;;;;;;;21.22;58.99;101866.00;5085247;28;20016;-61
2022/07/13 04:32:00;;;;;;;7.65;4.03;;;;;;;21.21;58.94;101864.34;5093208;28;20049;-61
2022/07/13 04:34:26;;;;;;;5.78;4.50;;;;;;;21.20;59.07;101860.00;5094458;28;20024;-61
2022/07/13 04:36:51;;;;;;;6.05;4.55;;;;;;;21.23;59.13;101873.09;5087726;28;20028;-61
2022/07/13 04:39:17;;;;;;;7.13;4.30;;;;;;;21.21;59.12;101866.22;5089330;28;20042;-61
2022/07/13 04:41:42;;;;;;;10.65;4.10;;;;;;;21.25;59.23;101867.47;5086522;28;20081;-62
2022/07/13 04:44:07;;;;;;;5.57;4.05;;;;;;;21.28;58.93;101875.97;5089479;28;20032;-61
2022/07/13 04:46:33;;;;;;;6.05;3.97;;;;;;;21.29;58.95;101869.53;5083381;28;20032;-60
2022/07/13 04:48:58;;;;;;;6.15;4.05;;;;;;;21.31;58.94;101869.31;5088830;28;20106;-61
2022/07/13 04:51:23;;;;;;;7.50;4.05;;;;;;;21.32;58.58;101868.25;5090021;28;20028;-61
2022/07/13 04:53:49;;;;;;;6.72;4.20;;;;;;;21.34;58.87;101864.28;5083498;28;20691;-61
2022/07/13 04:56:14;;;;;;;6.05;4.03;;;;;;;21.33;58.73;101862.63;5080291;28;20023;-62
2022/07/13 04:58:40;;;;;;;8.23;4.20;;;;;;;21.34;59.05;101861.59;5084916;28;20026;-61
2022/07/13 05:01:06;;;;;;;8.57;4.57;;;;;;;21.34;59.11;101861.59;5083494;28;20033;-61
2022/07/13 05:03:32;;;;;;;6.53;4.22;;;;;;;21.34;59.27;101864.28;5084123;28;20021;-60
2022/07/13 05:05:58;;;;;;;7.25;4.35;;;;;;;21.34;59.33;101849.97;5088981;28;20038;-61
2022/07/13 05:08:23;;;;;;;6.45;4.00;;;;;;;21.33;59.33;101851.81;5091050;28;20032;-61
2022/07/13 05:10:49;;;;;;;7.38;4.20;;;;;;;21.36;59.50;101857.84;5087305;28;20537;-61
2022/07/13 05:13:14;;;;;;;5.82;4.50;;;;;;;21.37;59.26;101854.09;5085163;28;20032;-61
2022/07/13 05:15:39;;;;;;;8.40;4.25;;;;;;;21.38;59.38;101850.34;5085969;28;20464;-61
2022/07/13 05:18:05;;;;;;;5.88;4.40;;;;;;;21.39;59.53;101857.41;5087398;28;20036;-60
2022/07/13 05:20:30;;;;;;;5.43;4.40;;;;;;;21.41;59.54;101855.34;5087654;28;20033;-60
2022/07/13 05:22:55;;;;;;;7.50;4.20;;;;;;;21.41;59.67;101856.16;5085114;28;20024;-61
2022/07/13 05:25:21;;;;;;;7.40;4.22;;;;;;;21.46;59.65;101853.63;5085270;28;20517;-61
2022/07/13 05:27:46;;;;;;;7.97;4.45;;;;;;;21.48;59.77;101858.81;5086401;28;20036;-61
2022/07/13 05:30:11;;;;;;;5.47;4.38;;;;;;;21.50;59.89;101862.13;5088082;28;20031;-61
2022/07/13 05:32:36;;;;;;;6.38;3.95;;;;;;;21.50;59.87;101867.53;5086523;28;20621;-61
2022/07/13 05:35:02;;;;;;;5.18;4.00;;;;;;;21.48;60.06;101865.06;5089617;28;20028;-61
2022/07/13 05:37:28;;;;;;;6.78;4.32;;;;;;;21.47;60.51;101862.56;5089205;28;20042;-61
2022/07/13 05:39:54;;;;;;;6.35;4.38;;;;;;;21.44;60.29;101871.94;5086963;28;20045;-61
2022/07/13 05:42:20;;;;;;;7.05;4.30;;;;;;;21.44;60.77;101873.81;5088439;28;20072;-61
2022/07/13 05:44:45;;;;;;;7.68;4.18;;;;;;;21.44;60.63;101866.53;5086000;28;20480;-61
2022/07/13 05:47:10;;;;;;;8.30;4.72;;;;;;;21.43;60.57;101885.69;5088618;28;20030;-61
2022/07/13 05:49:36;;;;;;;8.00;4.28;;;;;;;21.42;61.04;101892.97;5097544;28;20585;-60
2022/07/13 05:52:01;;;;;;;9.00;4.50;;;;;;;21.42;61.47;101884.84;5088748;28;20024;-61
2022/07/13 05:54:26;;;;;;;7.22;4.55;;;;;;;21.42;61.62;101897.53;5093211;28;20032;-60
2022/07/13 05:56:52;;;;;;;7.55;4.53;;;;;;;21.45;61.79;101897.09;5087858;28;20024;-61
2022/07/13 05:59:17;;;;;;;5.97;4.32;;;;;;;21.49;61.75;101895.63;5089635;28;20035;-61
2022/07/13 06:01:42;;;;;;;8.55;4.10;;;;;;;21.51;61.96;101883.53;5092142;28;20124;-62
2022/07/13 06:04:08;;;;;;;5.40;4.05;;;;;;;21.54;61.87;101883.09;5094203;28;20121;-61
2022/07/13 06:06:33;;;;;;;7.22;4.20;;;;;;;21.60;61.61;101889.50;5085761;28;20476;-59
2022/07/13 06:08:58;;;;;;;6.00;4.18;;;;;;;21.65;61.70;101887.81;5087293;28;20024;-61
2022/07/13 06:11:23;;;;;;;6.55;4.50;;;;;;;21.70;61.38;101881.75;5087578;28;20040;-61
2022/07/13 06:13:49;;;;;;;11.77;4.35;;;;;;;21.73;61.25;101886.72;5088816;28;20405;-61
2022/07/13 06:16:14;;;;;;;6.30;4.45;;;;;;;21.77;61.28;101879.84;5085290;28;20109;-61
2022/07/13 06:18:39;;;;;;;8.05;4.38;;;;;;;21.83;61.27;101878.13;5091532;28;20476;-61
2022/07/13 06:21:05;;;;;;;6.95;4.43;;;;;;;21.89;61.21;101883.47;5087304;28;20024;-60
2022/07/13 06:23:30;;;;;;;8.38;4.53;;;;;;;21.95;61.08;101879.88;5083105;28;20052;-61
2022/07/13 06:25:55;;;;;;;5.00;4.50;;;;;;;22.05;61.10;101889.44;5084163;28;20032;-61
2022/07/13 06:28:21;;;;;;;10.40;4.63;;;;;;;22.10;61.06;101886.88;5086036;28;20477;-61
2022/07/13 06:30:46;;;;;;;11.95;4.90;;;;;;;22.15;61.15;101881.63;5085367;28;20031;-62
2022/07/13 06:33:11;;;;;;;8.05;4.88;;;;;;;22.18;60.90;101879.31;5085259;28;20028;-61
2022/07/13 06:35:36;;;;;;;8.90;4.82;;;;;;;22.22;60.87;101885.91;5088071;28;20027;-61
2022/07/13 06:38:02;;;;;;;11.25;5.05;;;;;;;22.29;60.75;101885.88;5087760;28;20112;-61
2022/07/13 06:40:27;;;;;;;7.38;5.13;;;;;;;22.36;61.19;101880.41;5093979;28;20454;-61
2022/07/13 06:42:53;;;;;;;11.73;5.10;;;;;;;22.38;61.33;101871.00;5087653;28;20563;-61
2022/07/13 06:45:19;;;;;;;8.02;5.25;;;;;;;22.48;61.08;101884.00;5095409;28;20024;-61
2022/07/13 06:47:44;;;;;;;8.35;4.85;;;;;;;22.59;61.38;101887.88;5081552;28;20559;-59
2022/07/13 06:50:10;;;;;;;11.27;5.50;;;;;;;22.64;61.44;101888.03;5082016;28;20020;-62
2022/07/13 06:52:40;;;;;;;9.55;5.38;;;;;;;22.71;61.63;101889.59;5082869;28;20544;-61
2022/07/13 06:55:07;;;;;;;7.18;4.90;;;;;;;22.76;61.21;101888.91;5095006;28;20031;-60
2022/07/13 06:57:33;;;;;;;10.15;5.30;;;;;;;22.79;61.24;101885.75;5090218;28;20059;-62
2022/07/13 06:59:58;;;;;;;12.23;5.60;;;;;;;22.83;61.60;101890.53;5085270;28;20184;-61
2022/07/13 07:02:23;;;;;;;9.77;4.75;;;;;;;22.92;60.83;101885.66;5083190;28;20032;-61
2022/07/13 07:04:49;;;;;;;8.02;4.90;;;;;;;23.04;61.03;101886.53;5086449;28;20020;-61
2022/07/13 07:07:14;;;;;;;10.00;5.18;;;;;;;23.15;61.04;101891.19;5082375;28;21934;-61
2022/07/13 07:09:39;;;;;;;6.35;4.70;;;;;;;23.23;60.54;101881.91;5086440;28;20023;-62
2022/07/13 07:12:05;;;;;;;11.93;4.88;;;;;;;23.26;60.74;101883.34;5085195;28;20039;-62
2022/07/13 07:14:32;;;;;;;9.38;4.95;;;;;;;23.33;60.73;101882.19;5083444;28;20016;-59
2022/07/13 07:16:58;;;;;;;7.90;4.70;;;;;;;23.35;59.94;101892.78;5086172;28;20024;-61
2022/07/13 07:19:23;;;;;;;6.78;4.28;;;;;;;23.36;59.91;101884.44;5080058;28;20031;-61
2022/07/13 07:21:49;;;;;;;10.10;4.30;;;;;;;23.36;60.27;101889.84;5083147;28;20879;-61
2022/07/13 07:24:14;;;;;;;7.07;4.20;;;;;;;23.40;59.99;101887.50;5087059;28;20069;-61
2022/07/13 07:26:39;;;;;;;10.27;4.40;;;;;;;23.45;59.54;101879.53;5088757;28;20024;-61
2022/07/13 07:29:04;;;;;;;12.75;4.70;;;;;;;23.51;59.47;101866.94;5087488;28;20020;-61
2022/07/13 07:31:30;;;;;;;20.98;4.63;;;;;;;23.55;59.72;101873.53;5097966;28;20077;-61
2022/07/13 07:33:55;;;;;;;10.27;4.40;;;;;;;23.60;60.08;101871.81;5085918;28;20392;-61
2022/07/13 07:36:21;;;;;;;6.70;4.25;;;;;;;23.64;59.81;101878.41;5085977;28;20040;-60
2022/07/13 07:38:47;;;;;;;9.02;4.72;;;;;;;23.66;59.43;101872.75;5085317;28;20021;-61
2022/07/13 07:41:12;;;;;;;7.43;4.75;;;;;;;23.67;59.21;101877.94;5092023;28;20035;-61
2022/07/13 07:43:38;;;;;;;8.50;4.40;;;;;;;23.76;59.40;101879.28;5088549;28;20031;-61
2022/07/13 07:46:03;;;;;;;8.43;4.00;;;;;;;23.85;59.77;101878.94;5093139;28;20031;-61
2022/07/13 07:48:29;;;;;;;10.82;4.20;;;;;;;23.94;60.32;101886.50;5083253;28;20545;-61
2022/07/13 07:50:54;;;;;;;8.80;4.45;;;;;;;23.93;59.30;101881.31;5086378;28;20030;-61
2022/07/13 07:53:20;;;;;;;8.05;4.18;;;;;;;23.90;59.24;101881.78;5091841;28;20063;-62
2022/07/13 07:55:46;;;;;;;8.15;4.45;;;;;;;23.91;59.06;101883.44;5090641;28;20012;-61
2022/07/13 07:58:11;;;;;;;7.95;4.68;;;;;;;23.95;59.30;101882.72;5094299;28;20084;-60
2022/07/13 08:00:37;;;;;;;7.75;4.53;;;;;;;24.00;59.70;101887.47;5090423;28;20028;-62
2022/07/13 08:03:03;;;;;;;5.50;4.55;;;;;;;24.04;59.80;101883.22;5086035;28;20032;-61
2022/07/13 08:05:30;;;;;;;13.23;5.00;;;;;;;24.06;59.98;101875.69;5088025;28;20524;-60
2022/07/13 08:07:56;;;;;;;9.63;4.28;;;;;;;24.16;60.16;101878.63;5100019;28;20019;-60
2022/07/13 08:10:21;;;;;;;7.45;4.50;;;;;;;24.22;60.39;101885.81;5095669;28;20088;-62
2022/07/13 08:12:46;;;;;;;7.90;4.18;;;;;;;24.23;59.75;101875.78;5089459;28;20065;-61
2022/07/13 08:15:12;;;;;;;8.93;4.55;;;;;;;24.27;59.83;101882.38;5092531;28;20020;-61
2022/07/13 08:17:38;;;;;;;6.88;4.10;;;;;;;24.29;59.54;101875.72;5090311;28;22019;-61
2022/07/13 08:20:05;;;;;;;9.30;4.40;;;;;;;24.31;58.85;101883.63;5085146;28;20023;-61
2022/07/13 08:22:30;;;;;;;5.50;4.20;;;;;;;24.34;58.97;101886.69;5087117;28;20055;-61
2022/07/13 08:24:56;;;;;;;5.93;4.00;;;;;;;24.47;59.64;101893.75;5095011;28;20043;-61
2022/07/13 08:27:21;;;;;;;5.85;3.88;;;;;;;24.58;59.87;101886.69;5087099;28;20107;-61
2022/07/13 08:29:46;;;;;;;8.57;4.28;;;;;;;24.67;59.72;101888.78;5091548;28;20023;-61
2022/07/13 08:32:12;;;;;;;5.57;3.60;;;;;;;24.74;59.09;101890.53;5092138;28;20396;-61
2022/07/13 08:40:09;;;;;;;7.30;3.47;;;;;;;24.74;58.28;101872.34;5089534;28;20127;-61
2022/07/13 08:42:35;;;;;;;6.85;3.50;;;;;;;24.83;57.33;101889.09;5095441;28;20509;-61
2022/07/13 08:45:01;;;;;;;11.13;3.47;;;;;;;24.83;57.19;101889.91;5100703;28;20027;-61
2022/07/13 08:47:30;;;;;;;7.13;3.33;;;;;;;24.90;57.42;101897.97;5094696;28;20077;-61
2022/07/13 08:50:05;;;;;;;10.13;3.60;;;;;;;24.89;56.93;101893.59;5093046;28;20028;-61
2022/07/13 08:52:31;;;;;;;6.20;3.50;;;;;;;24.91;57.29;101894.19;5087555;28;20024;-61
2022/07/13 08:54:58;;;;;;;7.85;3.53;;;;;;;24.93;57.00;101897.47;5092360;28;20028;-61
2022/07/13 08:57:24;;;;;;;6.40;3.50;;;;;;;24.92;57.09;101902.09;5093677;28;20046;-62
2022/07/13 08:59:51;;;;;;;6.35;3.47;;;;;;;25.00;57.54;101903.63;5095708;27;20387;-60
2022/07/13 09:02:16;;;;;;;10.80;4.07;;;;;;;25.01;56.90;101889.78;5090875;28;20480;-61
2022/07/13 09:04:42;;;;;;;7.78;4.32;;;;;;;25.13;57.04;101891.63;5091728;28;20024;-61
2022/07/13 09:07:11;;;;;;;8.85;4.22;;;;;;;25.14;56.63;101896.00;5083792;28;20119;-61
2022/07/13 09:09:38;;;;;;;10.30;4.50;;;;;;;25.23;57.28;101900.00;5087198;28;20024;-61
2022/07/13 09:12:18;;;;;;;9.50;3.90;;;;;;;25.18;55.93;101908.06;5094298;28;20024;-61
2022/07/13 09:14:50;;;;;;;8.52;3.92;;;;;;;25.21;55.65;101907.59;5088237;28;20111;-62
2022/07/13 09:17:30;;;;;;;8.38;3.90;;;;;;;25.21;55.64;101902.97;5087903;28;20032;-61
2022/07/13 09:19:55;;;;;;;8.60;4.35;;;;;;;25.19;55.70;101898.84;5083831;28;20499;-62
2022/07/13 09:22:21;;;;;;;7.32;3.72;;;;;;;25.21;55.97;101899.44;5085594;28;20024;-61
2022/07/13 09:24:48;;;;;;;8.07;4.07;;;;;;;25.30;56.54;101909.66;5080287;28;20028;-61
2022/07/13 09:27:15;;;;;;;8.10;3.72;;;;;;;25.38;56.80;101900.28;5081419;28;20020;-61
2022/07/13 09:29:41;;;;;;;5.45;3.50;;;;;;;25.37;55.77;101905.97;5088912;28;20763;-62
2022/07/13 09:32:11;;;;;;;6.63;3.35;;;;;;;25.36;55.67;101912.47;5084585;28;20032;-61
2022/07/13 09:35:04;;;;;;;4.05;3.05;;;;;;;25.31;54.35;101924.09;5085150;28;20024;-61
2022/07/13 09:37:31;;;;;;;6.93;3.55;;;;;;;25.27;55.03;101914.75;5084636;28;20433;-61
2022/07/13 09:39:58;;;;;;;4.53;2.95;;;;;;;25.33;54.54;101924.66;5085410;28;20058;-61
2022/07/13 09:42:31;;;;;;;6.43;3.20;;;;;;;25.37;54.29;101912.22;5089059;28;20035;-61
2022/07/13 09:47:53;;;;;;;4.85;3.00;;;;;;;25.42;52.72;101916.94;5078644;28;20226;-61
2022/07/13 09:50:36;;;;;;;7.78;3.15;;;;;;;25.40;52.63;101914.47;5087315;28;20032;-62
2022/07/13 09:53:03;;;;;;;8.70;3.13;;;;;;;25.39;52.67;101929.13;5084835;28;20046;-61
2022/07/13 09:55:33;;;;;;;9.75;2.83;;;;;;;25.42;52.66;101935.97;5083695;28;20032;-62
2022/07/13 09:58:04;;;;;;;6.63;2.97;;;;;;;25.41;52.88;101927.00;5087794;28;20854;-62
2022/07/13 10:00:31;;;;;;;10.25;3.03;;;;;;;25.57;53.77;101915.34;5089013;28;20076;-61
2022/07/13 10:02:57;;;;;;;4.70;2.53;;;;;;;25.66;52.90;101920.38;5082783;28;20020;-62
2022/07/13 10:05:22;;;;;;;7.28;2.83;;;;;;;25.81;52.83;101915.25;5086305;28;20031;-61
2022/07/13 10:07:48;;;;;;;7.05;2.72;;;;;;;25.90;52.32;101921.94;5092148;28;20023;-61
2022/07/13 10:10:16;;;;;;;6.03;2.42;;;;;;;25.95;51.50;101930.19;5082749;28;20111;-61
2022/07/13 10:12:43;;;;;;;5.88;2.60;;;;;;;25.99;50.59;101922.34;5082547;28;20051;-61
2022/07/13 10:15:11;;;;;;;7.50;2.72;;;;;;;26.06;50.74;101918.41;5086211;28;20096;-61
2022/07/13 10:17:37;;;;;;;5.28;2.70;;;;;;;26.07;50.51;101914.59;5085244;28;20016;-61
2022/07/13 10:20:15;;;;;;;8.15;2.38;;;;;;;26.19;50.46;101922.69;5088492;28;20028;-61
2022/07/13 10:22:46;;;;;;;3.33;2.65;;;;;;;26.27;50.34;101924.16;5087107;28;20028;-61
2022/07/13 10:25:12;;;;;;;5.90;3.05;;;;;;;26.33;50.66;101915.84;5083586;28;20056;-62
2022/07/13 10:27:38;;;;;;;4.47;2.75;;;;;;;26.38;50.00;101909.66;5086482;28;20099;-61
2022/07/13 10:30:22;;;;;;;5.10;2.70;;;;;;;26.38;49.66;101926.00;5090978;28;20040;-62
2022/07/13 10:32:48;;;;;;;3.83;2.60;;;;;;;26.37;49.73;101919.72;5084160;28;20024;-64
2022/07/13 10:35:17;;;;;;;6.60;2.53;;;;;;;26.39;49.61;101925.75;5097529;28;20036;-61
2022/07/13 10:38:12;;;;;;;;;;;;;;;26.61;50.04;101935.88;5093171;28;20107;-61
2022/07/13 10:40:38;;;;;;;6.60;2.53;;;;;;;26.75;50.27;101931.69;5071293;28;20551;-61
2022/07/13 10:43:04;;;;;;;9.52;3.10;;;;;;;26.77;50.42;101933.09;5085780;28;20047;-62
2022/07/13 10:45:32;;;;;;;7.30;2.80;;;;;;;26.77;50.34;101930.38;5083638;28;20551;-62
2022/07/13 10:47:58;;;;;;;5.80;2.80;;;;;;;26.76;49.91;101927.91;5082958;28;20503;-62
2022/07/13 10:50:26;;;;;;;5.43;3.00;;;;;;;26.70;50.21;101942.53;5081854;28;20023;-62
2022/07/13 10:52:52;;;;;;;6.07;2.90;;;;;;;26.59;49.50;101944.28;5089406;28;20028;-62
2022/07/13 10:55:23;;;;;;;5.35;2.80;;;;;;;26.62;49.81;101938.34;5087520;28;20039;-62
2022/07/13 10:57:49;;;;;;;6.93;2.63;;;;;;;26.65;50.41;101937.84;5083327;28;20020;-62
2022/07/13 11:00:19;;;;;;;4.75;2.60;;;;;;;26.54;49.35;101941.47;5086533;28;20648;-61
2022/07/13 11:02:50;;;;;;;4.97;2.67;;;;;;;26.60;50.40;101939.66;5083640;28;20031;-61
2022/07/13 11:05:17;;;;;;;4.03;2.60;;;;;;;26.62;50.42;101946.53;5077778;28;20024;-61
2022/07/13 11:07:45;;;;;;;4.80;2.17;;;;;;;26.71;49.58;101950.47;5087206;28;20031;-61
2022/07/13 11:10:33;;;;;;;3.87;2.50;;;;;;;26.77;50.22;101944.00;5088385;28;20369;-62
2022/07/13 11:13:10;;;;;;;5.53;2.60;;;;;;;26.72;49.57;101945.84;5086062;28;20341;-61
2022/07/13 11:15:52;;;;;;;5.50;2.70;;;;;;;26.71;50.30;101945.00;5086410;28;20473;-61
2022/07/13 11:18:20;;;;;;;5.05;2.30;;;;;;;26.69;49.40;101952.63;5089292;28;20020;-62
2022/07/13 11:21:14;;;;;;;7.97;2.30;;;;;;;26.76;48.76;101950.53;5090306;28;20453;-62
2022/07/13 11:26:51;;;;;;;6.53;2.60;;;;;;;26.90;47.33;101950.19;5084666;28;20035;-60
2022/07/13 11:29:45;;;;;;;3.40;2.40;;;;;;;26.95;46.79;101955.69;5083935;28;20122;-61